sensor_id;sensor_type;location;lat;lon;timestamp;P1;durP1;ratioP1;P2;durP2;ratioP2
5428;SDS011;2737;52.386;9.980;2022-10-16T00:01:26;1.87;;;1.20;;
5428;SDS011;2737;52.386;9.980;2022-10-16T00:03:55;1.90;;;0.90;;
5428;SDS011;2737;52.386;9.980;2022-10-16T00:06:23;3.13;;;1.13;;
5428;SDS011;2737;52.386;9.980;2022-10-16T00:08:51;2.67;;;0.70;;
5428;SDS011;2737;52.386;9.980;2022-10-16T00:11:19;2.60;;;0.70;;
5428;SDS011;2737;52.386;9.980;2022-10-16T00:13:48;2.30;;;1.00;;
5428;SDS011;2737;52.386;9.980;2022-10-16T00:16:17;1.13;;;0.90;;
5428;SDS011;2737;52.386;9.980;2022-10-16T00:18:46;4.00;;;0.90;;
5428;SDS011;2737;52.386;9.980;2022-10-16T00:21:14;2.60;;;1.00;;
5428;SDS011;2737;52.386;9.980;2022-10-16T00:23:42;3.20;;;0.80;;
5428;SDS011;2737;52.386;9.980;2022-10-16T00:26:12;3.00;;;0.70;;
5428;SDS011;2737;52.386;9.980;2022-10-16T00:28:41;5.40;;;0.87;;
5428;SDS011;2737;52.386;9.980;2022-10-16T00:31:08;1.33;;;0.90;;
5428;SDS011;2737;52.386;9.980;2022-10-16T00:33:38;1.93;;;1.00;;
5428;SDS011;2737;52.386;9.980;2022-10-16T00:36:08;2.07;;;1.03;;
5428;SDS011;2737;52.386;9.980;2022-10-16T00:38:38;2.60;;;1.00;;
5428;SDS011;2737;52.386;9.980;2022-10-16T00:41:05;1.00;;;0.90;;
5428;SDS011;2737;52.386;9.980;2022-10-16T00:43:34;1.93;;;1.10;;
5428;SDS011;2737;52.386;9.980;2022-10-16T00:46:04;2.40;;;1.07;;
5428;SDS011;2737;52.386;9.980;2022-10-16T00:48:36;2.47;;;1.50;;
5428;SDS011;2737;52.386;9.980;2022-10-16T00:51:04;1.70;;;1.10;;
5428;SDS011;2737;52.386;9.980;2022-10-16T00:53:35;0.80;;;0.80;;
5428;SDS011;2737;52.386;9.980;2022-10-16T00:56:02;3.33;;;1.20;;
5428;SDS011;2737;52.386;9.980;2022-10-16T00:58:30;1.30;;;0.90;;
5428;SDS011;2737;52.386;9.980;2022-10-16T01:00:58;1.50;;;1.13;;
5428;SDS011;2737;52.386;9.980;2022-10-16T01:03:26;1.30;;;1.20;;
5428;SDS011;2737;52.386;9.980;2022-10-16T01:05:58;4.23;;;1.50;;
5428;SDS011;2737;52.386;9.980;2022-10-16T01:08:36;1.60;;;0.90;;
5428;SDS011;2737;52.386;9.980;2022-10-16T01:11:12;3.43;;;1.33;;
5428;SDS011;2737;52.386;9.980;2022-10-16T01:13:47;1.43;;;1.10;;
5428;SDS011;2737;52.386;9.980;2022-10-16T01:16:19;2.77;;;1.13;;
5428;SDS011;2737;52.386;9.980;2022-10-16T01:18:52;2.03;;;1.20;;
5428;SDS011;2737;52.386;9.980;2022-10-16T01:21:22;2.07;;;1.30;;
5428;SDS011;2737;52.386;9.980;2022-10-16T01:23:57;3.20;;;1.20;;
5428;SDS011;2737;52.386;9.980;2022-10-16T01:26:36;3.63;;;1.50;;
5428;SDS011;2737;52.386;9.980;2022-10-16T01:29:16;2.00;;;1.80;;
5428;SDS011;2737;52.386;9.980;2022-10-16T01:31:47;4.00;;;1.90;;
5428;SDS011;2737;52.386;9.980;2022-10-16T01:34:20;1.87;;;1.67;;
5428;SDS011;2737;52.386;9.980;2022-10-16T01:36:52;4.53;;;1.90;;
5428;SDS011;2737;52.386;9.980;2022-10-16T01:39:22;1.83;;;1.47;;
5428;SDS011;2737;52.386;9.980;2022-10-16T01:41:56;1.63;;;1.53;;
5428;SDS011;2737;52.386;9.980;2022-10-16T01:44:29;4.53;;;1.50;;
5428;SDS011;2737;52.386;9.980;2022-10-16T01:46:58;2.87;;;1.77;;
5428;SDS011;2737;52.386;9.980;2022-10-16T01:49:27;2.70;;;1.60;;
5428;SDS011;2737;52.386;9.980;2022-10-16T01:52:00;3.10;;;2.07;;
5428;SDS011;2737;52.386;9.980;2022-10-16T01:54:32;4.90;;;1.80;;
5428;SDS011;2737;52.386;9.980;2022-10-16T01:57:01;6.30;;;2.70;;
5428;SDS011;2737;52.386;9.980;2022-10-16T01:59:33;3.70;;;1.90;;
5428;SDS011;2737;52.386;9.980;2022-10-16T02:02:06;5.70;;;2.47;;
5428;SDS011;2737;52.386;9.980;2022-10-16T02:04:37;3.00;;;1.73;;
5428;SDS011;2737;52.386;9.980;2022-10-16T02:07:08;4.50;;;1.80;;
5428;SDS011;2737;52.386;9.980;2022-10-16T02:09:36;2.50;;;1.97;;
5428;SDS011;2737;52.386;9.980;2022-10-16T02:12:06;4.37;;;2.30;;
5428;SDS011;2737;52.386;9.980;2022-10-16T02:14:39;3.70;;;2.30;;
5428;SDS011;2737;52.386;9.980;2022-10-16T02:17:10;2.03;;;1.83;;
5428;SDS011;2737;52.386;9.980;2022-10-16T02:19:39;4.53;;;2.30;;
5428;SDS011;2737;52.386;9.980;2022-10-16T02:22:08;2.43;;;2.23;;
5428;SDS011;2737;52.386;9.980;2022-10-16T02:24:41;3.57;;;2.10;;
5428;SDS011;2737;52.386;9.980;2022-10-16T02:27:17;2.77;;;2.53;;
5428;SDS011;2737;52.386;9.980;2022-10-16T02:29:51;6.13;;;2.67;;
5428;SDS011;2737;52.386;9.980;2022-10-16T02:32:24;2.80;;;2.60;;
5428;SDS011;2737;52.386;9.980;2022-10-16T02:34:56;3.03;;;2.40;;
5428;SDS011;2737;52.386;9.980;2022-10-16T02:37:25;6.87;;;2.70;;
5428;SDS011;2737;52.386;9.980;2022-10-16T02:39:53;2.93;;;2.03;;
5428;SDS011;2737;52.386;9.980;2022-10-16T02:42:26;5.77;;;2.60;;
5428;SDS011;2737;52.386;9.980;2022-10-16T02:44:56;3.43;;;2.17;;
5428;SDS011;2737;52.386;9.980;2022-10-16T02:47:23;3.40;;;2.30;;
5428;SDS011;2737;52.386;9.980;2022-10-16T02:49:50;3.47;;;2.90;;
5428;SDS011;2737;52.386;9.980;2022-10-16T02:52:17;4.23;;;2.50;;
5428;SDS011;2737;52.386;9.980;2022-10-16T02:54:44;2.27;;;2.07;;
5428;SDS011;2737;52.386;9.980;2022-10-16T02:57:11;4.10;;;2.40;;
5428;SDS011;2737;52.386;9.980;2022-10-16T02:59:38;5.23;;;2.73;;
5428;SDS011;2737;52.386;9.980;2022-10-16T03:02:06;8.60;;;3.80;;
5428;SDS011;2737;52.386;9.980;2022-10-16T03:04:33;8.17;;;3.90;;
5428;SDS011;2737;52.386;9.980;2022-10-16T03:07:00;5.30;;;3.00;;
5428;SDS011;2737;52.386;9.980;2022-10-16T03:09:28;6.27;;;3.67;;
5428;SDS011;2737;52.386;9.980;2022-10-16T03:11:55;4.80;;;2.80;;
5428;SDS011;2737;52.386;9.980;2022-10-16T03:14:22;5.23;;;3.27;;
5428;SDS011;2737;52.386;9.980;2022-10-16T03:16:49;5.47;;;3.30;;
5428;SDS011;2737;52.386;9.980;2022-10-16T03:19:17;10.60;;;3.03;;
5428;SDS011;2737;52.386;9.980;2022-10-16T03:21:44;5.07;;;3.23;;
5428;SDS011;2737;52.386;9.980;2022-10-16T03:24:12;3.47;;;2.77;;
5428;SDS011;2737;52.386;9.980;2022-10-16T03:26:39;8.13;;;3.20;;
5428;SDS011;2737;52.386;9.980;2022-10-16T03:29:06;5.30;;;3.03;;
5428;SDS011;2737;52.386;9.980;2022-10-16T03:31:33;4.77;;;3.20;;
5428;SDS011;2737;52.386;9.980;2022-10-16T03:34:00;7.13;;;3.30;;
5428;SDS011;2737;52.386;9.980;2022-10-16T03:36:28;7.83;;;3.40;;
5428;SDS011;2737;52.386;9.980;2022-10-16T03:38:56;6.57;;;2.90;;
5428;SDS011;2737;52.386;9.980;2022-10-16T03:41:23;4.53;;;3.00;;
5428;SDS011;2737;52.386;9.980;2022-10-16T03:43:50;6.20;;;3.23;;
5428;SDS011;2737;52.386;9.980;2022-10-16T03:46:17;7.07;;;2.80;;
5428;SDS011;2737;52.386;9.980;2022-10-16T03:48:44;13.17;;;3.63;;
5428;SDS011;2737;52.386;9.980;2022-10-16T03:51:11;5.30;;;2.80;;
5428;SDS011;2737;52.386;9.980;2022-10-16T03:53:39;4.97;;;2.60;;
5428;SDS011;2737;52.386;9.980;2022-10-16T03:56:07;5.27;;;3.13;;
5428;SDS011;2737;52.386;9.980;2022-10-16T03:58:34;4.63;;;2.87;;
5428;SDS011;2737;52.386;9.980;2022-10-16T04:01:01;2.80;;;2.60;;
5428;SDS011;2737;52.386;9.980;2022-10-16T04:03:28;3.40;;;2.50;;
5428;SDS011;2737;52.386;9.980;2022-10-16T04:05:55;2.87;;;2.30;;
5428;SDS011;2737;52.386;9.980;2022-10-16T04:08:22;3.37;;;2.43;;
5428;SDS011;2737;52.386;9.980;2022-10-16T04:10:50;3.13;;;2.27;;
5428;SDS011;2737;52.386;9.980;2022-10-16T04:13:17;3.40;;;2.50;;
5428;SDS011;2737;52.386;9.980;2022-10-16T04:15:44;2.53;;;2.10;;
5428;SDS011;2737;52.386;9.980;2022-10-16T04:18:12;2.87;;;2.30;;
5428;SDS011;2737;52.386;9.980;2022-10-16T04:20:39;2.40;;;2.20;;
5428;SDS011;2737;52.386;9.980;2022-10-16T04:23:07;3.83;;;2.33;;
5428;SDS011;2737;52.386;9.980;2022-10-16T04:25:34;6.70;;;2.70;;
5428;SDS011;2737;52.386;9.980;2022-10-16T04:28:02;3.30;;;2.33;;
5428;SDS011;2737;52.386;9.980;2022-10-16T04:30:29;5.67;;;3.43;;
5428;SDS011;2737;52.386;9.980;2022-10-16T04:32:58;3.10;;;2.27;;
5428;SDS011;2737;52.386;9.980;2022-10-16T04:35:25;2.50;;;2.30;;
5428;SDS011;2737;52.386;9.980;2022-10-16T04:37:52;5.47;;;3.07;;
5428;SDS011;2737;52.386;9.980;2022-10-16T04:40:19;4.87;;;2.63;;
5428;SDS011;2737;52.386;9.980;2022-10-16T04:42:46;3.60;;;2.20;;
5428;SDS011;2737;52.386;9.980;2022-10-16T04:45:15;3.90;;;2.30;;
5428;SDS011;2737;52.386;9.980;2022-10-16T04:47:42;6.33;;;2.83;;
5428;SDS011;2737;52.386;9.980;2022-10-16T04:50:09;4.63;;;2.67;;
5428;SDS011;2737;52.386;9.980;2022-10-16T04:52:36;3.83;;;2.50;;
5428;SDS011;2737;52.386;9.980;2022-10-16T04:55:03;2.53;;;2.33;;
5428;SDS011;2737;52.386;9.980;2022-10-16T04:57:31;5.50;;;2.43;;
5428;SDS011;2737;52.386;9.980;2022-10-16T04:59:58;10.90;;;2.50;;
5428;SDS011;2737;52.386;9.980;2022-10-16T05:02:27;4.63;;;2.30;;
5428;SDS011;2737;52.386;9.980;2022-10-16T05:04:54;3.10;;;2.50;;
5428;SDS011;2737;52.386;9.980;2022-10-16T05:07:21;8.87;;;3.10;;
5428;SDS011;2737;52.386;9.980;2022-10-16T05:09:48;4.70;;;2.60;;
5428;SDS011;2737;52.386;9.980;2022-10-16T05:12:18;4.23;;;2.43;;
5428;SDS011;2737;52.386;9.980;2022-10-16T05:14:45;5.20;;;2.50;;
5428;SDS011;2737;52.386;9.980;2022-10-16T05:17:12;6.10;;;2.33;;
5428;SDS011;2737;52.386;9.980;2022-10-16T05:19:41;5.90;;;2.70;;
5428;SDS011;2737;52.386;9.980;2022-10-16T05:22:08;9.23;;;3.40;;
5428;SDS011;2737;52.386;9.980;2022-10-16T05:24:35;4.43;;;2.57;;
5428;SDS011;2737;52.386;9.980;2022-10-16T05:27:02;3.87;;;2.47;;
5428;SDS011;2737;52.386;9.980;2022-10-16T05:29:29;3.93;;;2.40;;
5428;SDS011;2737;52.386;9.980;2022-10-16T05:31:57;3.90;;;2.33;;
5428;SDS011;2737;52.386;9.980;2022-10-16T05:34:24;3.77;;;2.30;;
5428;SDS011;2737;52.386;9.980;2022-10-16T05:36:52;6.63;;;2.30;;
5428;SDS011;2737;52.386;9.980;2022-10-16T05:39:19;10.20;;;3.30;;
5428;SDS011;2737;52.386;9.980;2022-10-16T05:41:46;4.30;;;2.20;;
5428;SDS011;2737;52.386;9.980;2022-10-16T05:44:16;4.90;;;2.20;;
5428;SDS011;2737;52.386;9.980;2022-10-16T05:46:43;3.50;;;1.97;;
5428;SDS011;2737;52.386;9.980;2022-10-16T05:49:12;6.77;;;2.27;;
5428;SDS011;2737;52.386;9.980;2022-10-16T05:51:39;3.90;;;2.10;;
5428;SDS011;2737;52.386;9.980;2022-10-16T05:54:08;2.80;;;2.27;;
5428;SDS011;2737;52.386;9.980;2022-10-16T05:56:35;2.40;;;2.20;;
5428;SDS011;2737;52.386;9.980;2022-10-16T05:59:03;2.83;;;2.30;;
5428;SDS011;2737;52.386;9.980;2022-10-16T06:01:30;4.43;;;2.50;;
5428;SDS011;2737;52.386;9.980;2022-10-16T06:03:58;2.97;;;2.53;;
5428;SDS011;2737;52.386;9.980;2022-10-16T06:06:25;8.33;;;2.93;;
5428;SDS011;2737;52.386;9.980;2022-10-16T06:08:55;2.40;;;2.20;;
5428;SDS011;2737;52.386;9.980;2022-10-16T06:11:25;6.97;;;2.50;;
5428;SDS011;2737;52.386;9.980;2022-10-16T06:13:54;3.83;;;2.47;;
5428;SDS011;2737;52.386;9.980;2022-10-16T06:16:23;3.50;;;3.00;;
5428;SDS011;2737;52.386;9.980;2022-10-16T06:18:50;2.40;;;2.20;;
5428;SDS011;2737;52.386;9.980;2022-10-16T06:21:19;4.63;;;2.57;;
5428;SDS011;2737;52.386;9.980;2022-10-16T06:23:47;2.80;;;2.40;;
5428;SDS011;2737;52.386;9.980;2022-10-16T06:26:15;5.53;;;2.90;;
5428;SDS011;2737;52.386;9.980;2022-10-16T06:28:46;4.13;;;2.93;;
5428;SDS011;2737;52.386;9.980;2022-10-16T06:31:13;5.27;;;1.90;;
5428;SDS011;2737;52.386;9.980;2022-10-16T06:33:40;4.47;;;2.70;;
5428;SDS011;2737;52.386;9.980;2022-10-16T06:36:08;4.53;;;2.37;;
5428;SDS011;2737;52.386;9.980;2022-10-16T06:38:36;4.23;;;2.63;;
5428;SDS011;2737;52.386;9.980;2022-10-16T06:41:04;4.10;;;2.27;;
5428;SDS011;2737;52.386;9.980;2022-10-16T06:43:33;2.63;;;2.40;;
5428;SDS011;2737;52.386;9.980;2022-10-16T06:46:03;3.27;;;2.87;;
5428;SDS011;2737;52.386;9.980;2022-10-16T06:48:32;9.50;;;3.20;;
5428;SDS011;2737;52.386;9.980;2022-10-16T06:51:00;5.07;;;3.30;;
5428;SDS011;2737;52.386;9.980;2022-10-16T06:53:30;5.27;;;2.93;;
5428;SDS011;2737;52.386;9.980;2022-10-16T06:56:06;7.30;;;3.00;;
5428;SDS011;2737;52.386;9.980;2022-10-16T06:58:33;3.30;;;2.57;;
5428;SDS011;2737;52.386;9.980;2022-10-16T07:01:00;3.47;;;2.50;;
5428;SDS011;2737;52.386;9.980;2022-10-16T07:03:29;3.10;;;2.30;;
5428;SDS011;2737;52.386;9.980;2022-10-16T07:05:56;2.43;;;2.20;;
5428;SDS011;2737;52.386;9.980;2022-10-16T07:08:23;2.80;;;2.60;;
5428;SDS011;2737;52.386;9.980;2022-10-16T07:10:57;4.00;;;2.37;;
5428;SDS011;2737;52.386;9.980;2022-10-16T07:13:25;3.43;;;2.27;;
5428;SDS011;2737;52.386;9.980;2022-10-16T07:15:53;2.60;;;2.10;;
5428;SDS011;2737;52.386;9.980;2022-10-16T07:18:21;3.83;;;1.93;;
5428;SDS011;2737;52.386;9.980;2022-10-16T07:21:02;3.97;;;2.00;;
5428;SDS011;2737;52.386;9.980;2022-10-16T07:23:30;4.20;;;2.00;;
5428;SDS011;2737;52.386;9.980;2022-10-16T07:25:57;4.00;;;1.60;;
5428;SDS011;2737;52.386;9.980;2022-10-16T07:28:24;2.50;;;1.73;;
5428;SDS011;2737;52.386;9.980;2022-10-16T07:30:51;3.00;;;2.00;;
5428;SDS011;2737;52.386;9.980;2022-10-16T07:33:18;2.17;;;1.60;;
5428;SDS011;2737;52.386;9.980;2022-10-16T07:35:50;3.60;;;1.90;;
5428;SDS011;2737;52.386;9.980;2022-10-16T07:38:18;3.77;;;1.80;;
5428;SDS011;2737;52.386;9.980;2022-10-16T07:40:46;2.33;;;1.80;;
5428;SDS011;2737;52.386;9.980;2022-10-16T07:43:13;3.77;;;1.70;;
5428;SDS011;2737;52.386;9.980;2022-10-16T07:45:47;4.77;;;1.90;;
5428;SDS011;2737;52.386;9.980;2022-10-16T07:48:15;11.00;;;2.70;;
5428;SDS011;2737;52.386;9.980;2022-10-16T07:50:42;3.97;;;1.93;;
5428;SDS011;2737;52.386;9.980;2022-10-16T07:53:11;3.90;;;2.17;;
5428;SDS011;2737;52.386;9.980;2022-10-16T07:55:38;3.43;;;1.60;;
5428;SDS011;2737;52.386;9.980;2022-10-16T07:58:05;3.30;;;1.53;;
5428;SDS011;2737;52.386;9.980;2022-10-16T08:00:33;2.20;;;1.63;;
5428;SDS011;2737;52.386;9.980;2022-10-16T08:03:02;2.40;;;1.73;;
5428;SDS011;2737;52.386;9.980;2022-10-16T08:05:29;2.07;;;1.30;;
5428;SDS011;2737;52.386;9.980;2022-10-16T08:07:59;2.60;;;1.40;;
5428;SDS011;2737;52.386;9.980;2022-10-16T08:10:28;2.37;;;1.30;;
5428;SDS011;2737;52.386;9.980;2022-10-16T08:12:56;2.57;;;1.20;;
5428;SDS011;2737;52.386;9.980;2022-10-16T08:15:23;6.00;;;1.60;;
5428;SDS011;2737;52.386;9.980;2022-10-16T08:17:54;1.40;;;1.27;;
5428;SDS011;2737;52.386;9.980;2022-10-16T08:20:22;2.27;;;0.93;;
5428;SDS011;2737;52.386;9.980;2022-10-16T08:22:49;3.20;;;1.40;;
5428;SDS011;2737;52.386;9.980;2022-10-16T08:25:16;2.67;;;1.27;;
5428;SDS011;2737;52.386;9.980;2022-10-16T08:27:44;1.20;;;1.03;;
5428;SDS011;2737;52.386;9.980;2022-10-16T08:30:12;2.60;;;1.20;;
5428;SDS011;2737;52.386;9.980;2022-10-16T08:32:40;5.23;;;1.27;;
5428;SDS011;2737;52.386;9.980;2022-10-16T08:35:08;2.37;;;1.10;;
5428;SDS011;2737;52.386;9.980;2022-10-16T08:37:35;1.40;;;1.10;;
5428;SDS011;2737;52.386;9.980;2022-10-16T08:40:03;3.40;;;1.27;;
5428;SDS011;2737;52.386;9.980;2022-10-16T08:42:44;3.53;;;1.50;;
5428;SDS011;2737;52.386;9.980;2022-10-16T08:45:30;4.23;;;0.90;;
5428;SDS011;2737;52.386;9.980;2022-10-16T08:48:09;3.53;;;0.80;;
5428;SDS011;2737;52.386;9.980;2022-10-16T08:50:42;2.63;;;0.90;;
5428;SDS011;2737;52.386;9.980;2022-10-16T08:53:11;4.80;;;1.10;;
5428;SDS011;2737;52.386;9.980;2022-10-16T08:55:45;3.27;;;0.90;;
5428;SDS011;2737;52.386;9.980;2022-10-16T08:58:17;1.73;;;1.00;;
5428;SDS011;2737;52.386;9.980;2022-10-16T09:00:46;1.13;;;0.80;;
5428;SDS011;2737;52.386;9.980;2022-10-16T09:03:22;1.37;;;1.00;;
5428;SDS011;2737;52.386;9.980;2022-10-16T09:06:06;1.10;;;0.80;;
5428;SDS011;2737;52.386;9.980;2022-10-16T09:08:42;2.20;;;1.13;;
5428;SDS011;2737;52.386;9.980;2022-10-16T09:11:19;1.50;;;0.80;;
5428;SDS011;2737;52.386;9.980;2022-10-16T09:13:54;3.27;;;0.93;;
5428;SDS011;2737;52.386;9.980;2022-10-16T09:16:29;1.33;;;0.90;;
5428;SDS011;2737;52.386;9.980;2022-10-16T09:19:03;2.60;;;0.90;;
5428;SDS011;2737;52.386;9.980;2022-10-16T09:21:39;1.07;;;0.60;;
5428;SDS011;2737;52.386;9.980;2022-10-16T09:24:10;0.90;;;0.87;;
5428;SDS011;2737;52.386;9.980;2022-10-16T09:26:40;1.37;;;0.80;;
5428;SDS011;2737;52.386;9.980;2022-10-16T09:29:10;1.43;;;1.00;;
5428;SDS011;2737;52.386;9.980;2022-10-16T09:31:38;2.13;;;0.80;;
5428;SDS011;2737;52.386;9.980;2022-10-16T09:34:06;2.17;;;0.80;;
5428;SDS011;2737;52.386;9.980;2022-10-16T09:36:44;1.10;;;1.00;;
5428;SDS011;2737;52.386;9.980;2022-10-16T09:39:12;1.00;;;0.70;;
5428;SDS011;2737;52.386;9.980;2022-10-16T09:41:39;1.43;;;1.00;;
5428;SDS011;2737;52.386;9.980;2022-10-16T09:44:16;1.10;;;0.80;;
5428;SDS011;2737;52.386;9.980;2022-10-16T09:46:46;2.10;;;0.80;;
5428;SDS011;2737;52.386;9.980;2022-10-16T09:49:19;0.90;;;0.70;;
5428;SDS011;2737;52.386;9.980;2022-10-16T09:51:48;0.90;;;0.80;;
5428;SDS011;2737;52.386;9.980;2022-10-16T09:54:17;3.20;;;1.00;;
5428;SDS011;2737;52.386;9.980;2022-10-16T09:56:45;1.33;;;0.83;;
5428;SDS011;2737;52.386;9.980;2022-10-16T09:59:18;1.60;;;0.70;;
5428;SDS011;2737;52.386;9.980;2022-10-16T10:01:47;0.93;;;0.70;;
5428;SDS011;2737;52.386;9.980;2022-10-16T10:04:16;1.33;;;0.80;;
5428;SDS011;2737;52.386;9.980;2022-10-16T10:06:43;2.07;;;0.80;;
5428;SDS011;2737;52.386;9.980;2022-10-16T10:09:19;1.40;;;1.00;;
5428;SDS011;2737;52.386;9.980;2022-10-16T10:11:51;3.40;;;1.33;;
5428;SDS011;2737;52.386;9.980;2022-10-16T10:14:25;2.40;;;0.80;;
5428;SDS011;2737;52.386;9.980;2022-10-16T10:17:11;3.77;;;0.90;;
5428;SDS011;2737;52.386;9.980;2022-10-16T10:19:41;2.50;;;1.07;;
5428;SDS011;2737;52.386;9.980;2022-10-16T10:22:19;2.70;;;1.00;;
5428;SDS011;2737;52.386;9.980;2022-10-16T10:27:58;4.47;;;0.83;;
5428;SDS011;2737;52.386;9.980;2022-10-16T10:30:36;2.43;;;0.87;;
5428;SDS011;2737;52.386;9.980;2022-10-16T10:33:12;0.97;;;0.70;;
5428;SDS011;2737;52.386;9.980;2022-10-16T10:35:48;2.63;;;1.23;;
5428;SDS011;2737;52.386;9.980;2022-10-16T10:38:25;3.90;;;0.90;;
5428;SDS011;2737;52.386;9.980;2022-10-16T10:41:01;2.80;;;0.80;;
5428;SDS011;2737;52.386;9.980;2022-10-16T10:43:49;2.30;;;1.00;;
5428;SDS011;2737;52.386;9.980;2022-10-16T10:46:31;3.77;;;0.80;;
5428;SDS011;2737;52.386;9.980;2022-10-16T10:49:13;2.37;;;0.90;;
5428;SDS011;2737;52.386;9.980;2022-10-16T10:51:51;3.00;;;0.70;;
5428;SDS011;2737;52.386;9.980;2022-10-16T10:54:29;2.53;;;0.73;;
5428;SDS011;2737;52.386;9.980;2022-10-16T10:57:07;4.83;;;0.90;;
5428;SDS011;2737;52.386;9.980;2022-10-16T10:59:47;4.87;;;0.83;;
5428;SDS011;2737;52.386;9.980;2022-10-16T11:02:41;3.73;;;0.97;;
5428;SDS011;2737;52.386;9.980;2022-10-16T11:05:32;3.13;;;0.83;;
5428;SDS011;2737;52.386;9.980;2022-10-16T11:08:11;4.27;;;1.00;;
5428;SDS011;2737;52.386;9.980;2022-10-16T11:10:47;2.53;;;0.80;;
5428;SDS011;2737;52.386;9.980;2022-10-16T11:13:27;3.70;;;1.00;;
5428;SDS011;2737;52.386;9.980;2022-10-16T11:15:59;6.67;;;1.00;;
5428;SDS011;2737;52.386;9.980;2022-10-16T11:18:40;2.30;;;0.90;;
5428;SDS011;2737;52.386;9.980;2022-10-16T11:21:14;2.30;;;0.70;;
5428;SDS011;2737;52.386;9.980;2022-10-16T11:23:45;2.77;;;0.80;;
5428;SDS011;2737;52.386;9.980;2022-10-16T11:26:18;3.33;;;1.20;;
5428;SDS011;2737;52.386;9.980;2022-10-16T11:28:49;1.40;;;0.70;;
5428;SDS011;2737;52.386;9.980;2022-10-16T11:31:22;13.00;;;1.13;;
5428;SDS011;2737;52.386;9.980;2022-10-16T11:33:57;2.57;;;0.93;;
5428;SDS011;2737;52.386;9.980;2022-10-16T11:36:31;3.50;;;0.80;;
5428;SDS011;2737;52.386;9.980;2022-10-16T11:39:04;2.87;;;0.90;;
5428;SDS011;2737;52.386;9.980;2022-10-16T11:41:39;3.67;;;1.10;;
5428;SDS011;2737;52.386;9.980;2022-10-16T11:44:14;3.17;;;0.93;;
5428;SDS011;2737;52.386;9.980;2022-10-16T11:46:48;1.90;;;1.00;;
5428;SDS011;2737;52.386;9.980;2022-10-16T11:49:20;2.80;;;0.80;;
5428;SDS011;2737;52.386;9.980;2022-10-16T11:51:53;7.80;;;1.00;;
5428;SDS011;2737;52.386;9.980;2022-10-16T11:54:32;1.90;;;0.80;;
5428;SDS011;2737;52.386;9.980;2022-10-16T11:57:08;5.03;;;1.07;;
5428;SDS011;2737;52.386;9.980;2022-10-16T11:59:40;4.43;;;0.90;;
5428;SDS011;2737;52.386;9.980;2022-10-16T12:02:25;1.20;;;0.70;;
5428;SDS011;2737;52.386;9.980;2022-10-16T12:05:14;3.90;;;1.07;;
5428;SDS011;2737;52.386;9.980;2022-10-16T12:07:50;4.57;;;0.87;;
5428;SDS011;2737;52.386;9.980;2022-10-16T12:10:23;2.00;;;0.70;;
5428;SDS011;2737;52.386;9.980;2022-10-16T12:12:52;2.00;;;0.70;;
5428;SDS011;2737;52.386;9.980;2022-10-16T12:15:23;2.47;;;0.67;;
5428;SDS011;2737;52.386;9.980;2022-10-16T12:17:52;1.50;;;0.93;;
5428;SDS011;2737;52.386;9.980;2022-10-16T12:20:22;1.07;;;0.70;;
5428;SDS011;2737;52.386;9.980;2022-10-16T12:22:53;4.87;;;0.87;;
5428;SDS011;2737;52.386;9.980;2022-10-16T12:25:23;3.40;;;0.70;;
5428;SDS011;2737;52.386;9.980;2022-10-16T12:27:57;2.33;;;0.83;;
5428;SDS011;2737;52.386;9.980;2022-10-16T12:30:26;1.63;;;0.80;;
5428;SDS011;2737;52.386;9.980;2022-10-16T12:32:55;2.07;;;0.60;;
5428;SDS011;2737;52.386;9.980;2022-10-16T12:35:27;2.10;;;0.80;;
5428;SDS011;2737;52.386;9.980;2022-10-16T12:38:04;3.27;;;1.87;;
5428;SDS011;2737;52.386;9.980;2022-10-16T12:40:34;1.90;;;0.73;;
5428;SDS011;2737;52.386;9.980;2022-10-16T12:46:00;2.77;;;0.70;;
5428;SDS011;2737;52.386;9.980;2022-10-16T12:48:28;3.67;;;0.83;;
5428;SDS011;2737;52.386;9.980;2022-10-16T12:50:57;1.53;;;0.70;;
5428;SDS011;2737;52.386;9.980;2022-10-16T12:53:37;2.30;;;0.73;;
5428;SDS011;2737;52.386;9.980;2022-10-16T12:56:08;1.03;;;0.60;;
5428;SDS011;2737;52.386;9.980;2022-10-16T12:58:48;7.00;;;0.77;;
5428;SDS011;2737;52.386;9.980;2022-10-16T13:01:28;4.33;;;0.97;;
5428;SDS011;2737;52.386;9.980;2022-10-16T13:07:01;1.17;;;0.70;;
5428;SDS011;2737;52.386;9.980;2022-10-16T13:09:44;2.27;;;0.70;;
5428;SDS011;2737;52.386;9.980;2022-10-16T13:12:37;2.10;;;0.70;;
5428;SDS011;2737;52.386;9.980;2022-10-16T13:15:17;0.87;;;0.60;;
5428;SDS011;2737;52.386;9.980;2022-10-16T13:17:53;2.40;;;0.90;;
5428;SDS011;2737;52.386;9.980;2022-10-16T13:20:29;2.97;;;1.07;;
5428;SDS011;2737;52.386;9.980;2022-10-16T13:23:05;0.80;;;0.60;;
5428;SDS011;2737;52.386;9.980;2022-10-16T13:25:54;1.97;;;0.80;;
5428;SDS011;2737;52.386;9.980;2022-10-16T13:28:32;1.53;;;0.80;;
5428;SDS011;2737;52.386;9.980;2022-10-16T13:31:01;1.70;;;0.80;;
5428;SDS011;2737;52.386;9.980;2022-10-16T13:33:31;2.60;;;0.70;;
5428;SDS011;2737;52.386;9.980;2022-10-16T13:36:00;1.83;;;0.80;;
5428;SDS011;2737;52.386;9.980;2022-10-16T13:38:30;2.33;;;0.83;;
5428;SDS011;2737;52.386;9.980;2022-10-16T13:40:59;3.40;;;0.67;;
5428;SDS011;2737;52.386;9.980;2022-10-16T13:43:28;2.83;;;0.90;;
5428;SDS011;2737;52.386;9.980;2022-10-16T13:45:59;2.83;;;0.77;;
5428;SDS011;2737;52.386;9.980;2022-10-16T13:48:28;3.57;;;0.93;;
5428;SDS011;2737;52.386;9.980;2022-10-16T13:51:05;1.50;;;0.60;;
5428;SDS011;2737;52.386;9.980;2022-10-16T13:53:39;1.77;;;0.70;;
5428;SDS011;2737;52.386;9.980;2022-10-16T13:56:09;2.43;;;0.70;;
5428;SDS011;2737;52.386;9.980;2022-10-16T13:58:37;0.63;;;0.60;;
5428;SDS011;2737;52.386;9.980;2022-10-16T14:01:05;2.97;;;0.70;;
5428;SDS011;2737;52.386;9.980;2022-10-16T14:03:42;1.90;;;0.70;;
5428;SDS011;2737;52.386;9.980;2022-10-16T14:06:11;2.10;;;0.67;;
5428;SDS011;2737;52.386;9.980;2022-10-16T14:08:44;1.23;;;0.90;;
5428;SDS011;2737;52.386;9.980;2022-10-16T14:11:13;2.00;;;0.60;;
5428;SDS011;2737;52.386;9.980;2022-10-16T14:13:48;1.20;;;0.60;;
5428;SDS011;2737;52.386;9.980;2022-10-16T14:16:17;1.27;;;0.50;;
5428;SDS011;2737;52.386;9.980;2022-10-16T14:18:46;3.00;;;0.70;;
5428;SDS011;2737;52.386;9.980;2022-10-16T14:21:21;2.67;;;0.90;;
5428;SDS011;2737;52.386;9.980;2022-10-16T14:23:50;4.07;;;0.77;;
5428;SDS011;2737;52.386;9.980;2022-10-16T14:26:18;1.77;;;0.90;;
5428;SDS011;2737;52.386;9.980;2022-10-16T14:28:47;4.67;;;0.73;;
5428;SDS011;2737;52.386;9.980;2022-10-16T14:31:26;3.50;;;0.97;;
5428;SDS011;2737;52.386;9.980;2022-10-16T14:33:55;3.37;;;0.80;;
5428;SDS011;2737;52.386;9.980;2022-10-16T14:36:22;1.97;;;0.70;;
5428;SDS011;2737;52.386;9.980;2022-10-16T14:38:55;1.00;;;0.60;;
5428;SDS011;2737;52.386;9.980;2022-10-16T14:41:25;0.80;;;0.70;;
5428;SDS011;2737;52.386;9.980;2022-10-16T14:43:54;2.60;;;0.83;;
5428;SDS011;2737;52.386;9.980;2022-10-16T14:46:23;3.47;;;0.97;;
5428;SDS011;2737;52.386;9.980;2022-10-16T14:48:59;2.53;;;0.70;;
5428;SDS011;2737;52.386;9.980;2022-10-16T14:51:28;1.80;;;0.90;;
5428;SDS011;2737;52.386;9.980;2022-10-16T14:53:57;2.23;;;0.80;;
5428;SDS011;2737;52.386;9.980;2022-10-16T14:56:25;1.00;;;0.90;;
5428;SDS011;2737;52.386;9.980;2022-10-16T14:58:56;2.87;;;0.90;;
5428;SDS011;2737;52.386;9.980;2022-10-16T15:01:23;2.40;;;0.97;;
5428;SDS011;2737;52.386;9.980;2022-10-16T15:03:51;2.00;;;0.87;;
5428;SDS011;2737;52.386;9.980;2022-10-16T15:06:19;6.60;;;0.90;;
5428;SDS011;2737;52.386;9.980;2022-10-16T15:08:47;3.33;;;0.80;;
5428;SDS011;2737;52.386;9.980;2022-10-16T15:11:16;3.60;;;0.80;;
5428;SDS011;2737;52.386;9.980;2022-10-16T15:13:45;2.47;;;0.97;;
5428;SDS011;2737;52.386;9.980;2022-10-16T15:16:13;1.00;;;0.80;;
5428;SDS011;2737;52.386;9.980;2022-10-16T15:18:42;2.10;;;1.00;;
5428;SDS011;2737;52.386;9.980;2022-10-16T15:21:09;1.20;;;1.00;;
5428;SDS011;2737;52.386;9.980;2022-10-16T15:23:48;3.13;;;0.87;;
5428;SDS011;2737;52.386;9.980;2022-10-16T15:26:17;1.03;;;0.93;;
5428;SDS011;2737;52.386;9.980;2022-10-16T15:28:44;1.60;;;0.83;;
5428;SDS011;2737;52.386;9.980;2022-10-16T15:31:11;2.93;;;0.77;;
5428;SDS011;2737;52.386;9.980;2022-10-16T15:33:38;0.90;;;0.70;;
5428;SDS011;2737;52.386;9.980;2022-10-16T15:36:06;2.13;;;0.90;;
5428;SDS011;2737;52.386;9.980;2022-10-16T15:38:33;3.50;;;0.77;;
5428;SDS011;2737;52.386;9.980;2022-10-16T15:41:01;1.53;;;0.87;;
5428;SDS011;2737;52.386;9.980;2022-10-16T15:43:29;1.20;;;0.80;;
5428;SDS011;2737;52.386;9.980;2022-10-16T15:46:00;3.03;;;0.97;;